Carrier Princess — CZ3582 — position and weather

sailwx.info

Track history (hours):
 
Tides and Currents Weather Stations Pressure Air Temp Water Temp Dewpoint Dewpoint Depression Visibility Wind Speed Wind Dir Waves Ship Positions

Carrier Princess

Last reported at 2015-Jul-04 13:34 UTC. Time now 2015-Jul-04 13:43 UTC.
Position N 49°10' W 123°56'.

Length 112 m; draft 3 m.

Type: Cargo ship. MMSI: 316003656.

Date/timePositionNaut miles runAvg speedWind from/ knotsBaromVisibWave heightAir tempDewpointWater temp
2015-Jul-04 13:34N 49°10' W 123°56'0 0.0
2015-Jul-04 12:34N 49°10' W 123°56'0 0.0
2015-Jul-04 11:34N 49°10' W 123°56'7 6.9
2015-Jul-04 10:33N 49°13' W 123°47'1212.4
2015-Jul-04 09:33N 49°09' W 123°29'1211.7
2015-Jul-04 08:34N 49°07' W 123°11'6 6.3
2015-Jul-04 07:33N 49°09' W 123°02'1 0.7
2015-Jul-04 06:33N 49°08' W 123°03'1010.3
2015-Jul-04 05:33N 49°06' W 123°18'1212.4
2015-Jul-04 04:33N 48°54' W 123°18'1111.3
2015-Jul-04 03:34N 48°43' W 123°24'2 1.3
2015-Jul-04 02:16N 48°41' W 123°24'0 0.1
2015-Jul-04 01:33N 48°41' W 123°24'1110.3
2015-Jul-04 00:31N 48°52' W 123°20'1212.3
2015-Jul-03 23:33N 49°03' W 123°19'1212.1
2015-Jul-03 22:33N 49°09' W 123°03'0 0.4
2015-Jul-03 21:33N 49°09' W 123°02'2 1.5
2015-Jul-03 20:33N 49°08' W 123°04'9 9.4
2015-Jul-03 19:33N 49°06' W 123°18'1616.0
2015-Jul-03 18:33N 49°11' W 123°41'9 9.4
2015-Jul-03 17:33N 49°10' W 123°56'0 0.0
2015-Jul-03 16:33N 49°10' W 123°56'0 0.0
2015-Jul-03 15:33N 49°10' W 123°56'0 0.0
2015-Jul-03 14:33N 49°10' W 123°56'0 0.0
2015-Jul-03 13:33N 49°10' W 123°56'0 0.0
2015-Jul-03 12:33N 49°10' W 123°56'0 0.0
2015-Jul-03 11:33N 49°10' W 123°56'6 6.5
2015-Jul-03 10:33N 49°14' W 123°48'1312.7
2015-Jul-03 09:33N 49°09' W 123°30'1212.2
2015-Jul-03 08:33N 49°07' W 123°12'6 6.4
2015-Jul-03 07:33N 49°09' W 123°02'0 0.5
2015-Jul-03 06:33N 49°08' W 123°03'1110.9
2015-Jul-03 05:34N 49°06' W 123°19'1110.9
2015-Jul-03 04:34N 48°55' W 123°18'1212.2
2015-Jul-03 03:34N 48°43' W 123°24'2 2.1
2015-Jul-03 02:33N 48°41' W 123°24'0 0.0
2015-Jul-03 01:34N 48°41' W 123°24'1110.7
2015-Jul-03 00:33N 48°52' W 123°20'1313.0
2015-Jul-02 23:33N 49°05' W 123°19'1211.6
2015-Jul-02 22:34N 49°09' W 123°02'0 0.2
2015-Jul-02 21:33N 49°09' W 123°02'0 0.0
2015-Jul-02 20:33N 49°09' W 123°02'0 0.1
2015-Jul-02 19:33N 49°09' W 123°02'0 0.0
2015-Jul-02 18:33N 49°09' W 123°02'0 0.0
2015-Jul-02 17:33N 49°09' W 123°02'0 0.0
2015-Jul-02 16:33N 49°09' W 123°02'0 0.0
2015-Jul-02 15:33N 49°09' W 123°02'0 0.0
2015-Jul-02 14:33N 49°09' W 123°02'0 0.0
2015-Jul-02 13:33N 49°09' W 123°02'0 0.0
2015-Jul-02 12:33N 49°09' W 123°02'0 0.0
2015-Jul-02 11:33N 49°09' W 123°02'0 0.0
2015-Jul-02 10:33N 49°09' W 123°02'0 0.0
2015-Jul-02 09:33N 49°09' W 123°02'0 0.0
2015-Jul-02 08:33N 49°09' W 123°02'0 0.0
2015-Jul-02 07:33N 49°09' W 123°02'0 0.0
2015-Jul-02 06:33N 49°09' W 123°02'0 0.0
2015-Jul-02 05:33N 49°09' W 123°02'0 0.0
2015-Jul-02 04:33N 49°09' W 123°02'0 0.0
2015-Jul-02 03:33N 49°09' W 123°02'0 0.0
2015-Jul-02 02:33N 49°09' W 123°02'0 0.0
2015-Jul-02 01:33N 49°09' W 123°02'0 0.0
2015-Jul-02 00:33N 49°09' W 123°02'0 0.0
2015-Jul-01 23:33N 49°09' W 123°02'0 0.0
2015-Jul-01 22:33N 49°09' W 123°02'0 0.0
2015-Jul-01 21:33N 49°09' W 123°02'4 4.5
2015-Jul-01 20:33N 49°06' W 123°08'10 9.8
2015-Jul-01 19:33N 49°06' W 123°23'1413.8
2015-Jul-01 18:34N 49°11' W 123°43'9 7.6
2015-Jul-01 17:25N 49°10' W 123°56'0 0.0
2015-Jul-01 16:33N 49°10' W 123°56'0 0.0
2015-Jul-01 15:31N 49°10' W 123°56'0 0.0
2015-Jul-01 14:33N 49°10' W 123°56'0 0.0
2015-Jul-01 13:33N 49°10' W 123°56'0 0.0
2015-Jul-01 12:32N 49°10' W 123°56'0 0.0
2015-Jul-01 11:33N 49°10' W 123°56'7 6.6
2015-Jul-01 10:34N 49°14' W 123°48'1413.8
2015-Jul-01 09:33N 49°09' W 123°28'1312.5
2015-Jul-01 08:33N 49°07' W 123°09'5 5.0
2015-Jul-01 07:33N 49°09' W 123°02'2 2.1
2015-Jul-01 06:33N 49°07' W 123°04'1010.4
2015-Jul-01 05:34N 49°03' W 123°19'1212.3
2015-Jul-01 04:33N 48°51' W 123°21'10 9.9
2015-Jul-01 03:33N 48°41' W 123°24'0 0.0
2015-Jul-01 02:33N 48°41' W 123°24'0 0.0
2015-Jul-01 01:33N 48°41' W 123°24'1110.7
2015-Jul-01 00:33N 48°52' W 123°20'1414.4
2015-Jun-30 23:33N 49°06' W 123°19'1111.2
2015-Jun-30 22:33N 49°09' W 123°02'0 0.0
2015-Jun-30 21:33N 49°09' W 123°02'3 3.2
2015-Jun-30 20:33N 49°07' W 123°06'1010.2
2015-Jun-30 19:33N 49°06' W 123°22'1414.4
2015-Jun-30 18:33N 49°11' W 123°42'9 8.8
2015-Jun-30 17:33N 49°10' W 123°56'0 0.0
2015-Jun-30 16:33N 49°10' W 123°56'0 0.0
2015-Jun-30 15:33N 49°10' W 123°56'0 0.0
2015-Jun-30 14:33N 49°10' W 123°56'0 0.0
2015-Jun-30 13:33N 49°10' W 123°56'0 0.0
2015-Jun-30 12:33N 49°10' W 123°56'0 0.0
2015-Jun-30 11:33N 49°10' W 123°56'6 6.4
2015-Jun-30 10:34N 49°14' W 123°48'1212.4
2015-Jun-30 09:33N 49°09' W 123°30'1212.5
2015-Jun-30 08:33N 49°07' W 123°12'6 6.4
2015-Jun-30 07:33N 49°09' W 123°02'0 0.1
2015-Jun-30 06:33N 49°09' W 123°02'9 9.3
2015-Jun-30 05:33N 49°07' W 123°16'1312.7
2015-Jun-30 04:33N 48°54' W 123°18'1211.9
2015-Jun-30 03:34N 48°43' W 123°24'2 1.8
2015-Jun-30 02:33N 48°41' W 123°24'0 0.0
2015-Jun-30 01:34N 48°41' W 123°24'1212.2
2015-Jun-30 00:33N 48°53' W 123°18'1413.9
2015-Jun-29 23:33N 49°07' W 123°17'10 9.9
2015-Jun-29 22:33N 49°09' W 123°02'0 0.0
2015-Jun-29 21:33N 49°09' W 123°02'0 0.0
2015-Jun-29 20:33N 49°09' W 123°02'0 0.1
2015-Jun-29 19:33N 49°09' W 123°02'0 0.0
2015-Jun-29 18:33N 49°09' W 123°02'0 0.0
2015-Jun-29 17:33N 49°09' W 123°02'0 0.0
2015-Jun-29 16:33N 49°09' W 123°02'0 0.0
2015-Jun-29 15:33N 49°09' W 123°02'0 0.0
2015-Jun-29 14:33N 49°09' W 123°02'0 0.0
2015-Jun-29 13:33N 49°09' W 123°02'0 0.0
2015-Jun-29 12:33N 49°09' W 123°02'0 0.0
2015-Jun-29 11:33N 49°09' W 123°02'0 0.0
2015-Jun-29 10:33N 49°09' W 123°02'0 0.0
2015-Jun-29 09:33N 49°09' W 123°02'0 0.0
2015-Jun-29 08:33N 49°09' W 123°02'0 0.0
2015-Jun-29 07:33N 49°09' W 123°02'0 0.0
2015-Jun-29 06:33N 49°09' W 123°02'0 0.0
2015-Jun-29 05:33N 49°09' W 123°02'0 0.0
2015-Jun-29 04:33N 49°09' W 123°02'0 0.0
2015-Jun-29 03:33N 49°09' W 123°02'0 0.0
2015-Jun-29 02:33N 49°09' W 123°02'0 0.0
2015-Jun-29 01:33N 49°09' W 123°02'0 0.0
2015-Jun-29 00:33N 49°09' W 123°02'0 0.0
2015-Jun-28 23:33N 49°09' W 123°02'0 0.0
2015-Jun-28 22:33N 49°09' W 123°02'0 0.0
2015-Jun-28 21:33N 49°09' W 123°02'0 0.0
2015-Jun-28 20:33N 49°09' W 123°02'0 0.0
2015-Jun-28 19:33N 49°09' W 123°02'0 0.0
2015-Jun-28 18:33N 49°09' W 123°02'0 0.0
2015-Jun-28 17:33N 49°09' W 123°02'0 0.0
2015-Jun-28 16:33N 49°09' W 123°02'0 0.0
2015-Jun-28 15:33N 49°09' W 123°02'1 0.5
2015-Jun-28 14:33N 49°08' W 123°03'8 8.3
2015-Jun-28 13:33N 49°07' W 123°15'10 9.7
2015-Jun-28 12:33N 49°08' W 123°30'1111.0
2015-Jun-28 11:34N 49°12' W 123°46'7 6.9
2015-Jun-28 10:33N 49°10' W 123°56'0 0.0
2015-Jun-28 09:31N 49°10' W 123°56'1 1.2
2015-Jun-28 08:33N 49°10' W 123°54'9 8.6
2015-Jun-28 07:33N 49°12' W 123°41'1010.4
2015-Jun-28 06:33N 49°08' W 123°27'1110.7
2015-Jun-28 05:34N 49°07' W 123°10'6 5.8
2015-Jun-28 04:33N 49°09' W 123°02'0 0.0
2015-Jun-28 03:33N 49°09' W 123°02'0 0.0
2015-Jun-28 02:33N 49°09' W 123°02'0 0.0
2015-Jun-28 01:33N 49°09' W 123°02'0 0.0
2015-Jun-28 00:33N 49°09' W 123°02'0 0.0
2015-Jun-27 23:33N 49°09' W 123°02'2 2.1
2015-Jun-27 22:33N 49°07' W 123°04'1110.6
2015-Jun-27 21:34N 49°06' W 123°21'1211.9
2015-Jun-27 20:33N 49°11' W 123°38'1110.9
2015-Jun-27 19:33N 49°10' W 123°54'1 1.1
2015-Jun-27 18:33N 49°10' W 123°56'0 0.0
2015-Jun-27 17:33N 49°10' W 123°56'0 0.0
2015-Jun-27 16:33N 49°10' W 123°56'0 0.0
2015-Jun-27 15:33N 49°10' W 123°56'0 0.0
2015-Jun-27 14:33N 49°10' W 123°56'0 0.0
2015-Jun-27 13:33N 49°10' W 123°56'0 0.0
2015-Jun-27 12:33N 49°10' W 123°56'0 0.0
2015-Jun-27 11:33N 49°10' W 123°56'5 4.7
2015-Jun-27 10:33N 49°13' W 123°51'1413.6
2015-Jun-27 09:33N 49°10' W 123°31'1313.2
2015-Jun-27 08:33N 49°07' W 123°11'6 6.1
2015-Jun-27 07:33N 49°09' W 123°02'0 0.4
2015-Jun-27 06:33N 49°08' W 123°03'10 9.9
2015-Jun-27 05:33N 49°06' W 123°17'1212.3
2015-Jun-27 04:34N 48°54' W 123°18'1211.5
2015-Jun-27 03:33N 48°44' W 123°25'2 2.3
2015-Jun-27 02:33N 48°41' W 123°24'0 0.0
2015-Jun-27 01:34N 48°41' W 123°24'9 9.3
2015-Jun-27 00:34N 48°50' W 123°21'1514.6
2015-Jun-26 23:34N 49°05' W 123°20'1212.1
2015-Jun-26 22:34N 49°09' W 123°02'0 0.1
2015-Jun-26 21:34N 49°09' W 123°02'4 3.8
2015-Jun-26 20:34N 49°07' W 123°07'1111.4
2015-Jun-26 19:34N 49°07' W 123°24'1313.1
2015-Jun-26 18:33N 49°12' W 123°43'9 8.6
2015-Jun-26 17:33N 49°10' W 123°56'0 0.0
2015-Jun-26 16:33N 49°10' W 123°56'0 0.0
2015-Jun-26 15:33N 49°10' W 123°56'0 0.0
2015-Jun-26 14:33N 49°10' W 123°56'0 0.0
2015-Jun-26 13:30N 49°10' W 123°56'0 0.0
2015-Jun-26 12:33N 49°10' W 123°56'0 0.0
2015-Jun-26 11:33N 49°10' W 123°56'4 4.4
2015-Jun-26 10:34N 49°13' W 123°51'1414.2
2015-Jun-26 09:33N 49°09' W 123°30'1413.8
2015-Jun-26 08:34N 49°07' W 123°10'5 5.3
2015-Jun-26 07:33N 49°09' W 123°02'0 0.0
2015-Jun-26 06:33N 49°09' W 123°02'9 9.5
2015-Jun-26 05:33N 49°07' W 123°16'1111.0
2015-Jun-26 04:33N 48°56' W 123°17'1212.5
2015-Jun-26 03:33N 48°44' W 123°23'3 2.9
2015-Jun-26 02:34N 48°41' W 123°24'0 0.0
2015-Jun-26 01:33N 48°41' W 123°24'9 9.3
2015-Jun-26 00:33N 48°50' W 123°21'1413.8
2015-Jun-25 23:34N 49°04' W 123°20'1212.3
2015-Jun-25 22:33N 49°09' W 123°02'0 0.0
2015-Jun-25 21:33N 49°09' W 123°02'5 4.6
2015-Jun-25 20:34N 49°06' W 123°08'1212.1
2015-Jun-25 19:34N 49°08' W 123°27'1413.6
2015-Jun-25 18:33N 49°14' W 123°45'8 7.7
2015-Jun-25 17:33N 49°10' W 123°56'0 0.0
2015-Jun-25 16:33N 49°10' W 123°56'0 0.0
2015-Jun-25 15:33N 49°10' W 123°56'0 0.0
2015-Jun-25 14:33N 49°10' W 123°56'0 0.0
2015-Jun-25 13:33N 49°10' W 123°56'0 0.0
2015-Jun-25 12:33N 49°10' W 123°56'0 0.0
2015-Jun-25 11:33N 49°10' W 123°56'5 5.1
2015-Jun-25 10:33N 49°13' W 123°50'1514.6
2015-Jun-25 09:33N 49°10' W 123°28'1514.8
2015-Jun-25 08:33N 49°07' W 123°06'3 3.3
2015-Jun-25 07:33N 49°09' W 123°02'0 0.0
2015-Jun-25 06:34N 49°09' W 123°02'10 9.7
2015-Jun-25 05:34N 49°07' W 123°17'1111.2
2015-Jun-25 04:34N 48°56' W 123°17'1212.4
2015-Jun-25 03:33N 48°44' W 123°24'3 2.6
2015-Jun-25 02:34N 48°41' W 123°24'0 0.0
2015-Jun-25 01:33N 48°41' W 123°24'1110.8
2015-Jun-25 00:33N 48°52' W 123°19'1313.5
2015-Jun-24 23:33N 49°05' W 123°21'1312.7
2015-Jun-24 22:33N 49°09' W 123°02'0 0.1
2015-Jun-24 21:33N 49°09' W 123°02'5 5.0
2015-Jun-24 20:33N 49°06' W 123°09'1212.0
2015-Jun-24 19:33N 49°08' W 123°27'1313.2
2015-Jun-24 18:33N 49°13' W 123°46'7 6.9
2015-Jun-24 17:33N 49°10' W 123°56'0 0.0
2015-Jun-24 16:33N 49°10' W 123°56'0 0.0
2015-Jun-24 15:33N 49°10' W 123°56'0 0.0
2015-Jun-24 14:33N 49°10' W 123°56'  
Track history (hours):
 
Tides and Currents Weather Stations Pressure Air Temp Water Temp Dewpoint Dewpoint Depression Visibility Wind Speed Wind Dir Waves Ship Positions

Carrier Princess

Last reported at 2015-Jul-04 13:34 UTC. Time now 2015-Jul-04 13:43 UTC.
Position N 49°10' W 123°56'.

Length 112 m; draft 3 m.

Type: Cargo ship. MMSI: 316003656.

Date/timePositionNaut miles runAvg speedWind from/ knotsBaromVisibWave heightAir tempDewpointWater temp
2015-Jul-04 13:34N 49°10' W 123°56'0 0.0
2015-Jul-04 12:34N 49°10' W 123°56'0 0.0
2015-Jul-04 11:34N 49°10' W 123°56'7 6.9
2015-Jul-04 10:33N 49°13' W 123°47'1212.4
2015-Jul-04 09:33N 49°09' W 123°29'1211.7
2015-Jul-04 08:34N 49°07' W 123°11'6 6.3
2015-Jul-04 07:33N 49°09' W 123°02'1 0.7
2015-Jul-04 06:33N 49°08' W 123°03'1010.3
2015-Jul-04 05:33N 49°06' W 123°18'1212.4
2015-Jul-04 04:33N 48°54' W 123°18'1111.3
2015-Jul-04 03:34N 48°43' W 123°24'2 1.3
2015-Jul-04 02:16N 48°41' W 123°24'0 0.1
2015-Jul-04 01:33N 48°41' W 123°24'1110.3
2015-Jul-04 00:31N 48°52' W 123°20'1212.3
2015-Jul-03 23:33N 49°03' W 123°19'1212.1
2015-Jul-03 22:33N 49°09' W 123°03'0 0.4
2015-Jul-03 21:33N 49°09' W 123°02'2 1.5
2015-Jul-03 20:33N 49°08' W 123°04'9 9.4
2015-Jul-03 19:33N 49°06' W 123°18'1616.0
2015-Jul-03 18:33N 49°11' W 123°41'9 9.4
2015-Jul-03 17:33N 49°10' W 123°56'0 0.0
2015-Jul-03 16:33N 49°10' W 123°56'0 0.0
2015-Jul-03 15:33N 49°10' W 123°56'0 0.0
2015-Jul-03 14:33N 49°10' W 123°56'0 0.0
2015-Jul-03 13:33N 49°10' W 123°56'0 0.0
2015-Jul-03 12:33N 49°10' W 123°56'0 0.0
2015-Jul-03 11:33N 49°10' W 123°56'6 6.5
2015-Jul-03 10:33N 49°14' W 123°48'1312.7
2015-Jul-03 09:33N 49°09' W 123°30'1212.2
2015-Jul-03 08:33N 49°07' W 123°12'6 6.4
2015-Jul-03 07:33N 49°09' W 123°02'0 0.5
2015-Jul-03 06:33N 49°08' W 123°03'1110.9
2015-Jul-03 05:34N 49°06' W 123°19'1110.9
2015-Jul-03 04:34N 48°55' W 123°18'1212.2
2015-Jul-03 03:34N 48°43' W 123°24'2 2.1
2015-Jul-03 02:33N 48°41' W 123°24'0 0.0
2015-Jul-03 01:34N 48°41' W 123°24'1110.7
2015-Jul-03 00:33N 48°52' W 123°20'1313.0
2015-Jul-02 23:33N 49°05' W 123°19'1211.6
2015-Jul-02 22:34N 49°09' W 123°02'0 0.2
2015-Jul-02 21:33N 49°09' W 123°02'0 0.0
2015-Jul-02 20:33N 49°09' W 123°02'0 0.1
2015-Jul-02 19:33N 49°09' W 123°02'0 0.0
2015-Jul-02 18:33N 49°09' W 123°02'0 0.0
2015-Jul-02 17:33N 49°09' W 123°02'0 0.0
2015-Jul-02 16:33N 49°09' W 123°02'0 0.0
2015-Jul-02 15:33N 49°09' W 123°02'0 0.0
2015-Jul-02 14:33N 49°09' W 123°02'0 0.0
2015-Jul-02 13:33N 49°09' W 123°02'0 0.0
2015-Jul-02 12:33N 49°09' W 123°02'0 0.0
2015-Jul-02 11:33N 49°09' W 123°02'0 0.0
2015-Jul-02 10:33N 49°09' W 123°02'0 0.0
2015-Jul-02 09:33N 49°09' W 123°02'0 0.0
2015-Jul-02 08:33N 49°09' W 123°02'0 0.0
2015-Jul-02 07:33N 49°09' W 123°02'0 0.0
2015-Jul-02 06:33N 49°09' W 123°02'0 0.0
2015-Jul-02 05:33N 49°09' W 123°02'0 0.0
2015-Jul-02 04:33N 49°09' W 123°02'0 0.0
2015-Jul-02 03:33N 49°09' W 123°02'0 0.0
2015-Jul-02 02:33N 49°09' W 123°02'0 0.0
2015-Jul-02 01:33N 49°09' W 123°02'0 0.0
2015-Jul-02 00:33N 49°09' W 123°02'0 0.0
2015-Jul-01 23:33N 49°09' W 123°02'0 0.0
2015-Jul-01 22:33N 49°09' W 123°02'0 0.0
2015-Jul-01 21:33N 49°09' W 123°02'4 4.5
2015-Jul-01 20:33N 49°06' W 123°08'10 9.8
2015-Jul-01 19:33N 49°06' W 123°23'1413.8
2015-Jul-01 18:34N 49°11' W 123°43'9 7.6
2015-Jul-01 17:25N 49°10' W 123°56'0 0.0
2015-Jul-01 16:33N 49°10' W 123°56'0 0.0
2015-Jul-01 15:31N 49°10' W 123°56'0 0.0
2015-Jul-01 14:33N 49°10' W 123°56'0 0.0
2015-Jul-01 13:33N 49°10' W 123°56'0 0.0
2015-Jul-01 12:32N 49°10' W 123°56'0 0.0
2015-Jul-01 11:33N 49°10' W 123°56'7 6.6
2015-Jul-01 10:34N 49°14' W 123°48'1413.8
2015-Jul-01 09:33N 49°09' W 123°28'1312.5
2015-Jul-01 08:33N 49°07' W 123°09'5 5.0
2015-Jul-01 07:33N 49°09' W 123°02'2 2.1
2015-Jul-01 06:33N 49°07' W 123°04'1010.4
2015-Jul-01 05:34N 49°03' W 123°19'1212.3
2015-Jul-01 04:33N 48°51' W 123°21'10 9.9
2015-Jul-01 03:33N 48°41' W 123°24'0 0.0
2015-Jul-01 02:33N 48°41' W 123°24'0 0.0
2015-Jul-01 01:33N 48°41' W 123°24'1110.7
2015-Jul-01 00:33N 48°52' W 123°20'1414.4
2015-Jun-30 23:33N 49°06' W 123°19'1111.2
2015-Jun-30 22:33N 49°09' W 123°02'0 0.0
2015-Jun-30 21:33N 49°09' W 123°02'3 3.2
2015-Jun-30 20:33N 49°07' W 123°06'1010.2
2015-Jun-30 19:33N 49°06' W 123°22'1414.4
2015-Jun-30 18:33N 49°11' W 123°42'9 8.8
2015-Jun-30 17:33N 49°10' W 123°56'0 0.0
2015-Jun-30 16:33N 49°10' W 123°56'0 0.0
2015-Jun-30 15:33N 49°10' W 123°56'0 0.0
2015-Jun-30 14:33N 49°10' W 123°56'0 0.0
2015-Jun-30 13:33N 49°10' W 123°56'0 0.0
2015-Jun-30 12:33N 49°10' W 123°56'0 0.0
2015-Jun-30 11:33N 49°10' W 123°56'6 6.4
2015-Jun-30 10:34N 49°14' W 123°48'1212.4
2015-Jun-30 09:33N 49°09' W 123°30'1212.5
2015-Jun-30 08:33N 49°07' W 123°12'6 6.4
2015-Jun-30 07:33N 49°09' W 123°02'0 0.1
2015-Jun-30 06:33N 49°09' W 123°02'9 9.3
2015-Jun-30 05:33N 49°07' W 123°16'1312.7
2015-Jun-30 04:33N 48°54' W 123°18'1211.9
2015-Jun-30 03:34N 48°43' W 123°24'2 1.8
2015-Jun-30 02:33N 48°41' W 123°24'0 0.0
2015-Jun-30 01:34N 48°41' W 123°24'1212.2
2015-Jun-30 00:33N 48°53' W 123°18'1413.9
2015-Jun-29 23:33N 49°07' W 123°17'10 9.9
2015-Jun-29 22:33N 49°09' W 123°02'0 0.0
2015-Jun-29 21:33N 49°09' W 123°02'0 0.0
2015-Jun-29 20:33N 49°09' W 123°02'0 0.1
2015-Jun-29 19:33N 49°09' W 123°02'0 0.0
2015-Jun-29 18:33N 49°09' W 123°02'0 0.0
2015-Jun-29 17:33N 49°09' W 123°02'0 0.0
2015-Jun-29 16:33N 49°09' W 123°02'0 0.0
2015-Jun-29 15:33N 49°09' W 123°02'0 0.0
2015-Jun-29 14:33N 49°09' W 123°02'0 0.0
2015-Jun-29 13:33N 49°09' W 123°02'0 0.0
2015-Jun-29 12:33N 49°09' W 123°02'0 0.0
2015-Jun-29 11:33N 49°09' W 123°02'0 0.0
2015-Jun-29 10:33N 49°09' W 123°02'0 0.0
2015-Jun-29 09:33N 49°09' W 123°02'0 0.0
2015-Jun-29 08:33N 49°09' W 123°02'0 0.0
2015-Jun-29 07:33N 49°09' W 123°02'0 0.0
2015-Jun-29 06:33N 49°09' W 123°02'0 0.0
2015-Jun-29 05:33N 49°09' W 123°02'0 0.0
2015-Jun-29 04:33N 49°09' W 123°02'0 0.0
2015-Jun-29 03:33N 49°09' W 123°02'0 0.0
2015-Jun-29 02:33N 49°09' W 123°02'0 0.0
2015-Jun-29 01:33N 49°09' W 123°02'0 0.0
2015-Jun-29 00:33N 49°09' W 123°02'0 0.0
2015-Jun-28 23:33N 49°09' W 123°02'0 0.0
2015-Jun-28 22:33N 49°09' W 123°02'0 0.0
2015-Jun-28 21:33N 49°09' W 123°02'0 0.0
2015-Jun-28 20:33N 49°09' W 123°02'0 0.0
2015-Jun-28 19:33N 49°09' W 123°02'0 0.0
2015-Jun-28 18:33N 49°09' W 123°02'0 0.0
2015-Jun-28 17:33N 49°09' W 123°02'0 0.0
2015-Jun-28 16:33N 49°09' W 123°02'0 0.0
2015-Jun-28 15:33N 49°09' W 123°02'1 0.5
2015-Jun-28 14:33N 49°08' W 123°03'8 8.3
2015-Jun-28 13:33N 49°07' W 123°15'10 9.7
2015-Jun-28 12:33N 49°08' W 123°30'1111.0
2015-Jun-28 11:34N 49°12' W 123°46'7 6.9
2015-Jun-28 10:33N 49°10' W 123°56'0 0.0
2015-Jun-28 09:31N 49°10' W 123°56'1 1.2
2015-Jun-28 08:33N 49°10' W 123°54'9 8.6
2015-Jun-28 07:33N 49°12' W 123°41'1010.4
2015-Jun-28 06:33N 49°08' W 123°27'1110.7
2015-Jun-28 05:34N 49°07' W 123°10'6 5.8
2015-Jun-28 04:33N 49°09' W 123°02'0 0.0
2015-Jun-28 03:33N 49°09' W 123°02'0 0.0
2015-Jun-28 02:33N 49°09' W 123°02'0 0.0
2015-Jun-28 01:33N 49°09' W 123°02'0 0.0
2015-Jun-28 00:33N 49°09' W 123°02'0 0.0
2015-Jun-27 23:33N 49°09' W 123°02'2 2.1
2015-Jun-27 22:33N 49°07' W 123°04'1110.6
2015-Jun-27 21:34N 49°06' W 123°21'1211.9
2015-Jun-27 20:33N 49°11' W 123°38'1110.9
2015-Jun-27 19:33N 49°10' W 123°54'1 1.1
2015-Jun-27 18:33N 49°10' W 123°56'0 0.0
2015-Jun-27 17:33N 49°10' W 123°56'0 0.0
2015-Jun-27 16:33N 49°10' W 123°56'0 0.0
2015-Jun-27 15:33N 49°10' W 123°56'0 0.0
2015-Jun-27 14:33N 49°10' W 123°56'0 0.0
2015-Jun-27 13:33N 49°10' W 123°56'0 0.0
2015-Jun-27 12:33N 49°10' W 123°56'0 0.0
2015-Jun-27 11:33N 49°10' W 123°56'5 4.7
2015-Jun-27 10:33N 49°13' W 123°51'1413.6
2015-Jun-27 09:33N 49°10' W 123°31'1313.2
2015-Jun-27 08:33N 49°07' W 123°11'6 6.1
2015-Jun-27 07:33N 49°09' W 123°02'0 0.4
2015-Jun-27 06:33N 49°08' W 123°03'10 9.9
2015-Jun-27 05:33N 49°06' W 123°17'1212.3
2015-Jun-27 04:34N 48°54' W 123°18'1211.5
2015-Jun-27 03:33N 48°44' W 123°25'2 2.3
2015-Jun-27 02:33N 48°41' W 123°24'0 0.0
2015-Jun-27 01:34N 48°41' W 123°24'9 9.3
2015-Jun-27 00:34N 48°50' W 123°21'1514.6
2015-Jun-26 23:34N 49°05' W 123°20'1212.1
2015-Jun-26 22:34N 49°09' W 123°02'0 0.1
2015-Jun-26 21:34N 49°09' W 123°02'4 3.8
2015-Jun-26 20:34N 49°07' W 123°07'1111.4
2015-Jun-26 19:34N 49°07' W 123°24'1313.1
2015-Jun-26 18:33N 49°12' W 123°43'9 8.6
2015-Jun-26 17:33N 49°10' W 123°56'0 0.0
2015-Jun-26 16:33N 49°10' W 123°56'0 0.0
2015-Jun-26 15:33N 49°10' W 123°56'0 0.0
2015-Jun-26 14:33N 49°10' W 123°56'0 0.0
2015-Jun-26 13:30N 49°10' W 123°56'0 0.0
2015-Jun-26 12:33N 49°10' W 123°56'0 0.0
2015-Jun-26 11:33N 49°10' W 123°56'4 4.4
2015-Jun-26 10:34N 49°13' W 123°51'1414.2
2015-Jun-26 09:33N 49°09' W 123°30'1413.8
2015-Jun-26 08:34N 49°07' W 123°10'5 5.3
2015-Jun-26 07:33N 49°09' W 123°02'0 0.0
2015-Jun-26 06:33N 49°09' W 123°02'9 9.5
2015-Jun-26 05:33N 49°07' W 123°16'1111.0
2015-Jun-26 04:33N 48°56' W 123°17'1212.5
2015-Jun-26 03:33N 48°44' W 123°23'3 2.9
2015-Jun-26 02:34N 48°41' W 123°24'0 0.0
2015-Jun-26 01:33N 48°41' W 123°24'9 9.3
2015-Jun-26 00:33N 48°50' W 123°21'1413.8
2015-Jun-25 23:34N 49°04' W 123°20'1212.3
2015-Jun-25 22:33N 49°09' W 123°02'0 0.0
2015-Jun-25 21:33N 49°09' W 123°02'5 4.6
2015-Jun-25 20:34N 49°06' W 123°08'1212.1
2015-Jun-25 19:34N 49°08' W 123°27'1413.6
2015-Jun-25 18:33N 49°14' W 123°45'8 7.7
2015-Jun-25 17:33N 49°10' W 123°56'0 0.0
2015-Jun-25 16:33N 49°10' W 123°56'0 0.0
2015-Jun-25 15:33N 49°10' W 123°56'0 0.0
2015-Jun-25 14:33N 49°10' W 123°56'0 0.0
2015-Jun-25 13:33N 49°10' W 123°56'0 0.0
2015-Jun-25 12:33N 49°10' W 123°56'0 0.0
2015-Jun-25 11:33N 49°10' W 123°56'5 5.1
2015-Jun-25 10:33N 49°13' W 123°50'1514.6
2015-Jun-25 09:33N 49°10' W 123°28'1514.8
2015-Jun-25 08:33N 49°07' W 123°06'3 3.3
2015-Jun-25 07:33N 49°09' W 123°02'0 0.0
2015-Jun-25 06:34N 49°09' W 123°02'10 9.7
2015-Jun-25 05:34N 49°07' W 123°17'1111.2
2015-Jun-25 04:34N 48°56' W 123°17'1212.4
2015-Jun-25 03:33N 48°44' W 123°24'3 2.6
2015-Jun-25 02:34N 48°41' W 123°24'0 0.0
2015-Jun-25 01:33N 48°41' W 123°24'1110.8
2015-Jun-25 00:33N 48°52' W 123°19'1313.5
2015-Jun-24 23:33N 49°05' W 123°21'1312.7
2015-Jun-24 22:33N 49°09' W 123°02'0 0.1
2015-Jun-24 21:33N 49°09' W 123°02'5 5.0
2015-Jun-24 20:33N 49°06' W 123°09'1212.0
2015-Jun-24 19:33N 49°08' W 123°27'1313.2
2015-Jun-24 18:33N 49°13' W 123°46'7 6.9
2015-Jun-24 17:33N 49°10' W 123°56'0 0.0
2015-Jun-24 16:33N 49°10' W 123°56'0 0.0
2015-Jun-24 15:33N 49°10' W 123°56'0 0.0
2015-Jun-24 14:33N 49°10' W 123°56'  

Dump ship's entire track history